Time;durP1;ratioP1;P1;durP2;ratioP2;P2;SDS_P1;SDS_P2;PMS_P1;PMS_P2;Temp;Humidity;BMP_temperature;BMP_pressure;BME280_temperature;BME280_humidity;BME280_pressure;Samples;Min_cycle;Max_cycle;Signal;HPM_P1;HPM_P2
2022/09/18 00:01:08;;;;;;;;;;;12.90;99.90;;;;;;4877512;29;19919;-87
2022/09/18 00:03:39;;;;;;;;;;;12.90;99.90;;;;;;4877649;29;19947;-86
2022/09/18 00:06:23;;;;;;;;;;;12.90;99.90;;;;;;4877347;29;19968;-88
2022/09/18 00:08:52;;;;;;;;;;;12.90;99.90;;;;;;4878182;29;20376;-87
2022/09/18 00:11:22;;;;;;;;;;;12.80;99.90;;;;;;4882329;29;19919;-86
2022/09/18 00:14:14;;;;;;;;;;;12.70;99.90;;;;;;4881058;29;19960;-88
2022/09/18 00:16:39;;;;;;;;;;;12.70;99.90;;;;;;4880281;29;19932;-87
2022/09/18 00:19:05;;;;;;;;;;;12.70;99.90;;;;;;4881011;29;19989;-88
2022/09/18 00:21:31;;;;;;;;;;;12.80;99.90;;;;;;4882219;29;19911;-88
2022/09/18 00:23:58;;;;;;;;;;;12.70;99.90;;;;;;4880800;29;19919;-88
2022/09/18 00:26:26;;;;;;;;;;;12.80;99.90;;;;;;4880540;29;19919;-87
2022/09/18 00:28:53;;;;;;;;;;;12.80;99.90;;;;;;4880654;29;19916;-88
2022/09/18 00:31:20;;;;;;;;;;;12.80;99.90;;;;;;4880705;29;19912;-88
2022/09/18 00:33:49;;;;;;;;;;;12.90;99.90;;;;;;4880675;29;20011;-88
2022/09/18 00:36:23;;;;;;;;;;;12.80;99.90;;;;;;4880421;29;19959;-87
2022/09/18 00:38:49;;;;;;;;;;;12.80;99.90;;;;;;4880266;29;19923;-87
2022/09/18 00:41:23;;;;;;;;;;;12.70;99.90;;;;;;4880647;29;20011;-87
2022/09/18 00:44:14;;;;;;;;;;;12.70;99.90;;;;;;4881791;29;19939;-88
2022/09/18 00:46:41;;;;;;;;;;;12.70;99.90;;;;;;4880066;29;19960;-87
2022/09/18 00:49:31;;;;;;;;;;;12.70;99.90;;;;;;4881793;29;20006;-88
2022/09/18 00:52:03;;;;;;;;;;;12.80;99.90;;;;;;4880738;29;20321;-87
2022/09/18 00:54:55;;;;;;;;;;;12.70;99.90;;;;;;4880367;29;19912;-87
2022/09/18 00:57:23;;;;;;;;;;;12.70;99.90;;;;;;4879793;29;19916;-87
2022/09/18 00:59:49;;;;;;;;;;;12.70;99.90;;;;;;4880233;29;19912;-88
2022/09/18 01:02:48;;;;;;;;;;;;;;;;;;;;;
2022/09/18 01:05:16;;;;;;;;;;;12.80;99.90;;;;;;4881308;29;19911;-87
2022/09/18 01:08:18;;;;;;;;;;;12.80;99.90;;;;;;4879844;29;19916;-87
2022/09/18 01:10:49;;;;;;;;;;;12.70;99.90;;;;;;4880239;29;19971;-88
2022/09/18 01:13:47;;;;;;;;;;;12.70;99.90;;;;;;4881190;29;19922;-88
2022/09/18 01:16:23;;;;;;;;;;;12.70;99.90;;;;;;4879885;29;19912;-88
2022/09/18 01:19:09;;;;;;;;;;;12.80;99.90;;;;;;4883394;29;20081;-88
2022/09/18 01:21:43;;;;;;;;;;;12.80;99.90;;;;;;4880562;29;20051;-89
2022/09/18 01:24:14;;;;;;;;;;;12.80;99.90;;;;;;4880751;29;20014;-88
2022/09/18 01:26:55;;;;;;;;;;;12.80;99.90;;;;;;4879953;29;19963;-88
2022/09/18 01:29:24;;;;;;;;;;;12.80;99.90;;;;;;4879898;29;20376;-89
2022/09/18 01:32:00;;;;;;;;;;;12.80;99.90;;;;;;4879744;29;20027;-87
2022/09/18 01:34:33;;;;;;;;;;;12.90;99.90;;;;;;4880210;29;19919;-87
2022/09/18 01:37:03;;;;;;;;;;;13.00;99.90;;;;;;4879606;29;19923;-88
2022/09/18 01:39:33;;;;;;;;;;;13.00;99.90;;;;;;4880306;29;19919;-89
2022/09/18 01:42:00;;;;;;;;;;;13.00;99.90;;;;;;4879892;29;19912;-88
2022/09/18 01:44:28;;;;;;;;;;;13.00;99.90;;;;;;4881785;29;19919;-88
2022/09/18 01:46:56;;;;;;;;;;;13.00;99.90;;;;;;4880164;29;19916;-88
2022/09/18 01:49:24;;;;;;;;;;;12.90;99.90;;;;;;4880367;29;19932;-87
2022/09/18 01:51:53;;;;;;;;;;;12.90;99.90;;;;;;4879399;29;19975;-88
2022/09/18 01:54:21;;;;;;;;;;;12.90;99.90;;;;;;4879714;29;20269;-87
2022/09/18 01:56:49;;;;;;;;;;;12.90;99.90;;;;;;4879659;29;19920;-89
2022/09/18 01:59:18;;;;;;;;;;;12.90;99.90;;;;;;4879717;29;20083;-87
2022/09/18 02:01:45;;;;;;;;;;;13.00;99.90;;;;;;4879963;29;19912;-88
2022/09/18 02:04:13;;;;;;;;;;;12.90;99.90;;;;;;4879893;29;19916;-88
2022/09/18 02:06:46;;;;;;;;;;;12.90;99.90;;;;;;4879434;29;19912;-89
2022/09/18 02:09:12;;;;;;;;;;;12.80;99.90;;;;;;4879462;29;20014;-88
2022/09/18 02:11:40;;;;;;;;;;;12.80;99.90;;;;;;4879546;29;19958;-88
2022/09/18 02:14:17;;;;;;;;;;;12.80;99.90;;;;;;4879361;29;19919;-88
2022/09/18 02:16:54;;;;;;;;;;;12.70;99.90;;;;;;4878661;29;19912;-87
2022/09/18 02:19:24;;;;;;;;;;;12.70;99.90;;;;;;4878842;29;19915;-87
2022/09/18 02:21:50;;;;;;;;;;;12.70;99.90;;;;;;4880129;29;19919;-88
2022/09/18 02:24:18;;;;;;;;;;;12.70;99.90;;;;;;4878784;29;19919;-88
2022/09/18 02:26:45;;;;;;;;;;;12.70;99.90;;;;;;4878541;29;19915;-87
2022/09/18 02:29:12;;;;;;;;;;;12.70;99.90;;;;;;4878658;29;19912;-88
2022/09/18 02:31:38;;;;;;;;;;;12.60;99.90;;;;;;4878613;29;19919;-88
2022/09/18 02:34:07;;;;;;;;;;;12.60;99.90;;;;;;4877644;29;19912;-87
2022/09/18 02:36:32;;;;;;;;;;;12.60;99.90;;;;;;4878100;29;19911;-88
2022/09/18 02:39:19;;;;;;;;;;;12.60;99.90;;;;;;4878364;29;20408;-87
2022/09/18 02:42:01;;;;;;;;;;;12.60;99.90;;;;;;4878596;29;19912;-87
2022/09/18 02:44:40;;;;;;;;;;;12.60;99.90;;;;;;4878570;29;19912;-88
2022/09/18 02:47:12;;;;;;;;;;;12.70;99.90;;;;;;4878272;29;19911;-88
2022/09/18 02:49:49;;;;;;;;;;;12.70;99.90;;;;;;4878469;29;19919;-89
2022/09/18 02:52:19;;;;;;;;;;;12.60;99.90;;;;;;4878498;29;20293;-88
2022/09/18 02:54:48;;;;;;;;;;;12.60;99.90;;;;;;4878523;29;20356;-89
2022/09/18 02:57:20;;;;;;;;;;;12.50;99.90;;;;;;4878170;29;20362;-89
2022/09/18 02:59:48;;;;;;;;;;;12.50;99.90;;;;;;4878478;29;19919;-88
2022/09/18 03:02:13;;;;;;;;;;;12.50;99.90;;;;;;4879929;29;19912;-87
2022/09/18 03:04:39;;;;;;;;;;;12.40;99.90;;;;;;4878610;29;19919;-88
2022/09/18 03:07:04;;;;;;;;;;;12.30;99.90;;;;;;4877905;29;19912;-88
2022/09/18 03:09:31;;;;;;;;;;;12.30;99.90;;;;;;4878598;29;19919;-89
2022/09/18 03:11:57;;;;;;;;;;;12.20;99.90;;;;;;4879443;29;19912;-88
2022/09/18 03:14:23;;;;;;;;;;;12.20;99.90;;;;;;4878482;29;19912;-88
2022/09/18 03:16:48;;;;;;;;;;;12.20;99.90;;;;;;4877898;29;19928;-88
2022/09/18 03:19:14;;;;;;;;;;;12.30;99.90;;;;;;4878305;29;20113;-88
2022/09/18 03:21:43;;;;;;;;;;;12.30;99.90;;;;;;4878286;29;19912;-89
2022/09/18 03:24:08;;;;;;;;;;;12.30;99.90;;;;;;4878223;29;20333;-89
2022/09/18 03:26:34;;;;;;;;;;;12.30;99.90;;;;;;4877698;29;20018;-88
2022/09/18 03:29:00;;;;;;;;;;;12.30;99.90;;;;;;4878220;29;19908;-88
2022/09/18 03:31:25;;;;;;;;;;;12.30;99.90;;;;;;4877953;29;20372;-89
2022/09/18 03:33:51;;;;;;;;;;;12.30;99.90;;;;;;4879389;29;19945;-89
2022/09/18 03:36:16;;;;;;;;;;;12.40;99.90;;;;;;4878192;29;20138;-89
2022/09/18 03:38:42;;;;;;;;;;;12.40;99.90;;;;;;4878046;29;19967;-89
2022/09/18 03:41:07;;;;;;;;;;;12.40;99.90;;;;;;4878480;29;19963;-89
2022/09/18 03:43:33;;;;;;;;;;;12.40;99.90;;;;;;4878559;29;19912;-89
2022/09/18 03:45:59;;;;;;;;;;;12.40;99.90;;;;;;4866446;29;19923;-89
2022/09/18 03:48:25;;;;;;;;;;;12.30;99.90;;;;;;4882356;29;19959;-88
2022/09/18 03:50:51;;;;;;;;;;;12.30;99.90;;;;;;4882382;29;20388;-89
2022/09/18 03:53:18;;;;;;;;;;;12.30;99.90;;;;;;4882048;29;20372;-89
2022/09/18 03:55:43;;;;;;;;;;;12.30;99.90;;;;;;4866765;29;19983;-89
2022/09/18 03:58:09;;;;;;;;;;;12.20;99.90;;;;;;4882010;29;19955;-88
2022/09/18 04:00:34;;;;;;;;;;;12.30;99.90;;;;;;4882346;29;19919;-89
2022/09/18 04:03:01;;;;;;;;;;;12.30;99.90;;;;;;4882333;29;20253;-89
2022/09/18 04:05:29;;;;;;;;;;;12.30;99.90;;;;;;4883648;29;19912;-89
2022/09/18 04:07:55;;;;;;;;;;;12.30;99.90;;;;;;4883829;29;19923;-89
2022/09/18 04:10:21;;;;;;;;;;;12.20;99.90;;;;;;4882700;29;19912;-89
2022/09/18 04:12:48;;;;;;;;;;;12.20;99.90;;;;;;4883650;29;20365;-90
2022/09/18 04:15:14;;;;;;;;;;;12.30;99.90;;;;;;4884049;29;20287;-89
2022/09/18 04:17:40;;;;;;;;;;;12.20;99.90;;;;;;4884591;29;19977;-90
2022/09/18 04:20:11;;;;;;;;;;;12.20;99.90;;;;;;4883984;29;20361;-90
2022/09/18 04:23:10;;;;;;;;;;;;;;;;;;;;;
2022/09/18 04:26:09;;;;;;;;;;;;;;;;;;;;;
2022/09/18 04:29:27;;;;;;;;;;;;;;;;;;;;;
2022/09/18 04:31:53;;;;;;;;;;;12.20;99.90;;;;;;4863694;29;19917;-89
2022/09/18 04:34:57;;;;;;;;;;;12.20;99.90;;;;;;4882234;29;20015;-89
2022/09/18 04:40:14;;;;;;;;;;;12.20;99.90;;;;;;4882340;29;19932;-89
2022/09/18 04:46:25;;;;;;;;;;;12.20;99.90;;;;;;4864639;29;19916;-89
2022/09/18 04:51:56;;;;;;;;;;;12.20;99.90;;;;;;4900485;29;19935;-90
2022/09/18 04:57:34;;;;;;;;;;;12.30;99.90;;;;;;4901021;29;20142;-89
2022/09/18 05:06:05;;;;;;;;;;;;;;;;;;;;;
2022/09/18 05:08:53;;;;;;;;;;;;;;;;;;;;;
2022/09/18 05:11:42;;;;;;;;;;;12.30;99.90;;;;;;4860495;29;19924;-89
2022/09/18 05:17:24;;;;;;;;;;;;;;;;;;;;;
2022/09/18 05:20:03;;;;;;;;;;;12.30;99.90;;;;;;4899990;29;19918;-89
2022/09/18 05:23:14;;;;;;;;;;;;;;;;;;;;;
2022/09/18 05:25:43;;;;;;;;;;;12.40;99.90;;;;;;4899340;29;19911;-89
2022/09/18 05:28:40;;;;;;;;;;;;;;;;;;;;;
2022/09/18 05:34:33;;;;;;;;;;;12.50;99.90;;;;;;4900849;29;19911;-88
2022/09/18 05:37:02;;;;;;;;;;;12.60;99.90;;;;;;4899784;29;20050;-89
2022/09/18 05:39:55;;;;;;;;;;;12.50;99.90;;;;;;4899692;29;19912;-88
2022/09/18 05:42:24;;;;;;;;;;;12.60;99.90;;;;;;4900391;29;19912;-89
2022/09/18 05:44:50;;;;;;;;;;;12.60;99.90;;;;;;4899684;29;20336;-89
2022/09/18 05:47:15;;;;;;;;;;;12.60;99.90;;;;;;4899250;29;19918;-89
2022/09/18 05:49:43;;;;;;;;;;;12.60;99.90;;;;;;4899353;29;19967;-89
2022/09/18 05:52:16;;;;;;;;;;;12.60;99.90;;;;;;4898917;29;20010;-90
2022/09/18 05:54:42;;;;;;;;;;;12.70;99.90;;;;;;4898679;29;19911;-89
2022/09/18 05:57:07;;;;;;;;;;;12.70;99.90;;;;;;4898540;29;20386;-88
2022/09/18 05:59:33;;;;;;;;;;;12.70;99.90;;;;;;4898893;29;19920;-89
2022/09/18 06:01:59;;;;;;;;;;;12.70;99.90;;;;;;4898630;29;20364;-89
2022/09/18 06:04:24;;;;;;;;;;;12.70;99.90;;;;;;4898793;29;19915;-89
2022/09/18 06:06:50;;;;;;;;;;;12.70;99.90;;;;;;4897761;29;19915;-89
2022/09/18 06:09:18;;;;;;;;;;;12.70;99.90;;;;;;4898402;29;19911;-88
2022/09/18 06:11:46;;;;;;;;;;;12.70;99.90;;;;;;4898438;29;20443;-89
2022/09/18 06:14:15;;;;;;;;;;;12.60;99.90;;;;;;4898682;29;19950;-89
2022/09/18 06:16:41;;;;;;;;;;;12.70;99.90;;;;;;4897963;29;19978;-89
2022/09/18 06:19:21;;;;;;;;;;;12.80;99.90;;;;;;4898276;29;20427;-88
2022/09/18 06:21:52;;;;;;;;;;;12.80;99.90;;;;;;4898840;29;20375;-89
2022/09/18 06:24:29;;;;;;;;;;;12.80;99.90;;;;;;4897861;29;19955;-89
2022/09/18 06:32:55;;;;;;;;;;;12.80;99.90;;;;;;4899222;29;19967;-90
2022/09/18 06:35:21;;;;;;;;;;;12.80;99.90;;;;;;4897774;29;19918;-88
2022/09/18 06:37:47;;;;;;;;;;;12.80;99.90;;;;;;4897343;29;19915;-88
2022/09/18 06:40:14;;;;;;;;;;;12.90;99.90;;;;;;4897715;29;19959;-89
2022/09/18 06:42:54;;;;;;;;;;;12.90;99.90;;;;;;4897526;29;19919;-88
2022/09/18 06:45:19;;;;;;;;;;;12.90;99.90;;;;;;4897259;29;19912;-90
2022/09/18 06:48:07;;;;;;;;;;;12.90;99.90;;;;;;4896995;29;19918;-89
2022/09/18 06:50:38;;;;;;;;;;;12.90;99.90;;;;;;4896989;29;19925;-89
2022/09/18 06:53:04;;;;;;;;;;;12.90;99.90;;;;;;4897242;29;19916;-89
2022/09/18 06:55:33;;;;;;;;;;;12.90;99.90;;;;;;4897512;29;19912;-88
2022/09/18 06:58:07;;;;;;;;;;;12.90;99.90;;;;;;4896820;29;20358;-89
2022/09/18 07:00:45;;;;;;;;;;;12.90;99.90;;;;;;4897135;29;19911;-88
2022/09/18 07:03:11;;;;;;;;;;;12.80;99.90;;;;;;4896892;29;19915;-89
2022/09/18 07:05:45;;;;;;;;;;;13.00;99.90;;;;;;4897755;29;19911;-88
2022/09/18 07:08:43;;;;;;;;;;;13.10;99.90;;;;;;4897207;29;19912;-89
2022/09/18 07:11:09;;;;;;;;;;;13.10;99.90;;;;;;4876128;29;19919;-87
2022/09/18 07:13:50;;;;;;;;;;;13.10;99.90;;;;;;4898043;29;19916;-89
2022/09/18 07:16:19;;;;;;;;;;;13.20;99.90;;;;;;4896973;29;20387;-88
2022/09/18 07:22:51;;;;;;;;;;;;;;;;;;;;;
2022/09/18 07:37:57;;;;;;;;;;;13.00;99.90;;;;;;4825086;29;19961;-90
2022/09/18 07:53:10;;;;;;;;;;;12.90;99.90;;;;;;4858731;29;19920;-88
2022/09/18 07:55:36;;;;;;;;;;;12.90;99.90;;;;;;4850597;29;20319;-89
2022/09/18 07:58:37;;;;;;;;;;;13.10;99.90;;;;;;4896580;29;19928;-90
2022/09/18 08:01:06;;;;;;;;;;;13.30;99.90;;;;;;4896391;29;20283;-89
2022/09/18 08:03:31;;;;;;;;;;;13.40;99.90;;;;;;4896446;29;19911;-89
2022/09/18 08:05:57;;;;;;;;;;;13.50;99.90;;;;;;4896375;29;19994;-89
2022/09/18 08:08:23;;;;;;;;;;;13.60;99.90;;;;;;4898068;29;19912;-88
2022/09/18 08:10:56;;;;;;;;;;;13.70;99.90;;;;;;4896517;29;19911;-89
2022/09/18 08:13:25;;;;;;;;;;;13.70;99.90;;;;;;4896015;29;19939;-89
2022/09/18 08:16:04;;;;;;;;;;;13.80;99.90;;;;;;4897165;29;19916;-89
2022/09/18 08:18:52;;;;;;;;;;;13.80;99.90;;;;;;4896895;29;20014;-89
2022/09/18 08:21:18;;;;;;;;;;;13.90;99.90;;;;;;4895991;29;19915;-88
2022/09/18 08:23:43;;;;;;;;;;;14.00;99.90;;;;;;4896264;29;19934;-89
2022/09/18 08:29:17;;;;;;;;;;;14.30;99.90;;;;;;4897584;29;19918;-89
2022/09/18 08:31:43;;;;;;;;;;;14.40;99.90;;;;;;4899435;29;19919;-88
2022/09/18 08:34:12;;;;;;;;;;;14.60;99.90;;;;;;4899510;29;19911;-89
2022/09/18 08:37:10;;;;;;;;;;;14.70;99.90;;;;;;4899393;29;20272;-89
2022/09/18 08:43:07;;;;;;;;;;;14.70;99.90;;;;;;4900715;29;19911;-88
2022/09/18 08:48:59;;;;;;;;;;;14.30;99.90;;;;;;4860827;29;19912;-89
2022/09/18 08:51:37;;;;;;;;;;;14.10;99.90;;;;;;4893758;29;20331;-89
2022/09/18 08:54:17;;;;;;;;;;;13.90;99.90;;;;;;4900159;29;19924;-89
2022/09/18 08:56:51;;;;;;;;;;;13.80;99.90;;;;;;4905506;23;19912;-90
2022/09/18 08:59:36;;;;;;;;;;;13.90;99.90;;;;;;4899379;29;19942;-89
2022/09/18 09:02:34;;;;;;;;;;;;;;;;;;;;;
2022/09/18 09:05:34;;;;;;;;;;;;;;;;;;;;;
2022/09/18 09:08:12;;;;;;;;;;;14.40;99.90;;;;;;4916264;29;19918;-89
2022/09/18 09:10:57;;;;;;;;;;;14.50;99.90;;;;;;4907091;23;19919;-89
2022/09/18 09:13:30;;;;;;;;;;;14.50;99.90;;;;;;4879821;29;19920;-89
2022/09/18 09:16:16;;;;;;;;;;;14.20;99.90;;;;;;4880174;29;19919;-88
2022/09/18 09:18:58;;;;;;;;;;;14.00;99.90;;;;;;4880014;29;20007;-89
2022/09/18 09:21:36;;;;;;;;;;;13.80;99.90;;;;;;4880246;29;19912;-88
2022/09/18 09:24:07;;;;;;;;;;;13.90;99.90;;;;;;4880191;29;19912;-89
2022/09/18 09:26:36;;;;;;;;;;;13.90;99.90;;;;;;4879851;29;20375;-89
2022/09/18 09:29:35;;;;;;;;;;;13.90;99.90;;;;;;4882023;29;19919;-89
2022/09/18 09:32:13;;;;;;;;;;;13.70;99.90;;;;;;4880831;29;19912;-89
2022/09/18 09:34:46;;;;;;;;;;;13.50;99.90;;;;;;4880356;29;20019;-89
2022/09/18 09:37:26;;;;;;;;;;;13.40;99.90;;;;;;4880008;29;19926;-90
2022/09/18 09:45:50;;;;;;;;;;;13.40;99.90;;;;;;4881099;29;19915;-88
2022/09/18 09:48:37;;;;;;;;;;;13.50;99.90;;;;;;4880820;29;19911;-90
2022/09/18 09:51:34;;;;;;;;;;;13.80;99.90;;;;;;4880686;29;19919;-90
2022/09/18 09:54:38;;;;;;;;;;;14.40;99.90;;;;;;4879230;29;19968;-89
2022/09/18 10:06:57;;;;;;;;;;;14.80;99.90;;;;;;4878168;29;19928;-89
2022/09/18 10:15:50;;;;;;;;;;;14.50;99.90;;;;;;4939439;23;19934;-88
2022/09/18 10:18:44;;;;;;;;;;;;;;;;;;;;;
2022/09/18 10:21:27;;;;;;;;;;;;;;;;;;;;;
2022/09/18 10:24:05;;;;;;;;;;;14.30;99.90;;;;;;4897008;29;19918;-88
2022/09/18 10:26:36;;;;;;;;;;;14.20;99.90;;;;;;4908914;23;19927;-83
2022/09/18 10:29:02;;;;;;;;;;;14.10;99.90;;;;;;4897554;29;20500;-83
2022/09/18 10:31:48;;;;;;;;;;;14.00;99.90;;;;;;4897279;29;19912;-83
2022/09/18 10:34:34;;;;;;;;;;;13.90;99.90;;;;;;4897327;29;19911;-83
2022/09/18 10:37:00;;;;;;;;;;;13.80;99.90;;;;;;4896847;29;19926;-83
2022/09/18 10:39:33;;;;;;;;;;;13.70;99.90;;;;;;4898447;29;19912;-83
2022/09/18 10:42:12;;;;;;;;;;;13.70;99.90;;;;;;4897133;29;19922;-82
2022/09/18 10:44:42;;;;;;;;;;;13.70;99.90;;;;;;4896975;29;19918;-83
2022/09/18 10:47:09;;;;;;;;;;;13.90;99.90;;;;;;4897086;29;20290;-83
2022/09/18 10:49:39;;;;;;;;;;;14.00;99.90;;;;;;4897042;29;19911;-83
2022/09/18 10:52:20;;;;;;;;;;;14.10;99.90;;;;;;4897028;29;19947;-83
2022/09/18 10:54:58;;;;;;;;;;;14.10;99.90;;;;;;4897331;29;19912;-84
2022/09/18 10:57:26;;;;;;;;;;;14.20;99.90;;;;;;4896551;29;20017;-83
2022/09/18 10:59:52;;;;;;;;;;;14.10;99.90;;;;;;4896734;29;19954;-83
2022/09/18 11:02:19;;;;;;;;;;;14.00;99.90;;;;;;4898003;29;20128;-83
2022/09/18 11:04:46;;;;;;;;;;;14.00;99.90;;;;;;4897963;29;19917;-83
2022/09/18 11:07:12;;;;;;;;;;;13.80;99.90;;;;;;4897575;29;20018;-83
2022/09/18 11:09:39;;;;;;;;;;;13.80;99.90;;;;;;4897763;29;20394;-83
2022/09/18 11:12:11;;;;;;;;;;;13.80;99.90;;;;;;4896682;29;19911;-83
2022/09/18 11:14:40;;;;;;;;;;;13.70;99.90;;;;;;4896552;29;20287;-83
2022/09/18 11:17:12;;;;;;;;;;;13.70;99.90;;;;;;4897558;29;19967;-83
2022/09/18 11:19:38;;;;;;;;;;;13.70;99.90;;;;;;4897844;29;20004;-83
2022/09/18 11:22:05;;;;;;;;;;;13.80;99.90;;;;;;4897837;29;20265;-83
2022/09/18 11:24:33;;;;;;;;;;;13.80;99.90;;;;;;4896571;29;20302;-83
2022/09/18 11:27:00;;;;;;;;;;;13.90;99.90;;;;;;4896015;29;19923;-83
2022/09/18 11:29:33;;;;;;;;;;;13.90;99.90;;;;;;4896278;29;19927;-83
2022/09/18 11:32:02;;;;;;;;;;;14.00;99.90;;;;;;4896161;29;19915;-83
2022/09/18 11:34:27;;;;;;;;;;;14.00;99.90;;;;;;4897545;29;20394;-83
2022/09/18 11:36:58;;;;;;;;;;;14.00;99.90;;;;;;4897188;29;19912;-83
2022/09/18 11:39:27;;;;;;;;;;;14.00;99.90;;;;;;4896501;29;19916;-84
2022/09/18 11:41:53;;;;;;;;;;;14.10;99.90;;;;;;4896221;29;20405;-83
2022/09/18 11:44:24;;;;;;;;;;;14.20;99.90;;;;;;4896237;29;20383;-84
2022/09/18 11:47:09;;;;;;;;;;;14.20;99.90;;;;;;4895968;29;19915;-83
2022/09/18 11:49:39;;;;;;;;;;;14.20;99.90;;;;;;4896198;29;19947;-83
2022/09/18 11:52:14;;;;;;;;;;;14.00;99.90;;;;;;4897630;29;19919;-83
2022/09/18 11:54:58;;;;;;;;;;;14.00;99.90;;;;;;4897484;29;19916;-84
2022/09/18 11:57:26;;;;;;;;;;;14.10;99.90;;;;;;4895821;29;19979;-84
2022/09/18 11:59:55;;;;;;;;;;;14.00;99.90;;;;;;4896106;29;19912;-82
2022/09/18 12:02:26;;;;;;;;;;;14.00;99.90;;;;;;4896114;29;19918;-83
2022/09/18 12:04:58;;;;;;;;;;;14.10;99.90;;;;;;4896663;29;19922;-83
2022/09/18 12:07:26;;;;;;;;;;;14.20;99.90;;;;;;4899562;29;20292;-83
2022/09/18 12:09:54;;;;;;;;;;;14.30;99.90;;;;;;4899891;29;19912;-84
2022/09/18 12:12:20;;;;;;;;;;;14.50;99.90;;;;;;4901095;29;19918;-84
2022/09/18 12:14:54;;;;;;;;;;;14.70;99.90;;;;;;4899802;29;19911;-83
2022/09/18 12:17:38;;;;;;;;;;;15.00;99.90;;;;;;4899456;29;19944;-83
2022/09/18 12:20:06;;;;;;;;;;;15.10;99.90;;;;;;4900991;29;19919;-83
2022/09/18 12:22:37;;;;;;;;;;;15.10;99.90;;;;;;4899738;29;19912;-84
2022/09/18 12:25:10;;;;;;;;;;;15.00;99.90;;;;;;4899910;29;19967;-84
2022/09/18 12:27:44;;;;;;;;;;;14.90;99.90;;;;;;4899309;29;20019;-84
2022/09/18 12:30:11;;;;;;;;;;;15.00;99.90;;;;;;4899768;29;19958;-84
2022/09/18 12:32:52;;;;;;;;;;;15.20;99.90;;;;;;4899502;29;19916;-83
2022/09/18 12:35:27;;;;;;;;;;;15.20;99.90;;;;;;4899466;29;19959;-85
2022/09/18 12:37:55;;;;;;;;;;;15.40;99.90;;;;;;4899384;29;19923;-84
2022/09/18 12:40:24;;;;;;;;;;;15.30;99.90;;;;;;4900596;29;20375;-84
2022/09/18 12:43:01;;;;;;;;;;;15.00;99.90;;;;;;4899395;29;19912;-83
2022/09/18 12:45:46;;;;;;;;;;;14.60;99.90;;;;;;4899546;29;19911;-83
2022/09/18 12:48:29;;;;;;;;;;;14.20;99.90;;;;;;4899454;29;19915;-84
2022/09/18 12:51:13;;;;;;;;;;;13.90;99.90;;;;;;4900796;29;19972;-83
2022/09/18 12:53:59;;;;;;;;;;;13.70;99.90;;;;;;4899469;29;19916;-85
2022/09/18 12:56:49;;;;;;;;;;;13.60;99.90;;;;;;4899022;29;19911;-85
2022/09/18 12:59:51;;;;;;;;;;;13.40;99.90;;;;;;4899260;29;19916;-87
2022/09/18 13:02:20;;;;;;;;;;;13.30;99.90;;;;;;4882488;29;19918;-85
2022/09/18 13:05:06;;;;;;;;;;;13.20;99.90;;;;;;4896208;29;19911;-86
2022/09/18 13:07:38;;;;;;;;;;;13.30;99.90;;;;;;4900196;29;19923;-86
2022/09/18 13:10:23;;;;;;;;;;;13.40;99.90;;;;;;4900331;29;19981;-86
2022/09/18 13:12:53;;;;;;;;;;;13.30;99.90;;;;;;4900706;29;19923;-86
2022/09/18 13:15:21;;;;;;;;;;;13.30;99.90;;;;;;4899042;29;19926;-86
2022/09/18 13:17:48;;;;;;;;;;;13.40;99.90;;;;;;4898284;29;19923;-85
2022/09/18 13:20:17;;;;;;;;;;;13.30;99.90;;;;;;4899763;29;20181;-85
2022/09/18 13:22:44;;;;;;;;;;;13.30;99.90;;;;;;4901028;29;19919;-84
2022/09/18 13:25:20;;;;;;;;;;;13.30;99.90;;;;;;4899855;29;19912;-85
2022/09/18 13:27:45;;;;;;;;;;;13.20;99.90;;;;;;4899930;29;20287;-85
2022/09/18 13:30:21;;;;;;;;;;;13.30;99.90;;;;;;4899355;29;19912;-85
2022/09/18 13:32:46;;;;;;;;;;;13.30;99.90;;;;;;4900108;29;20400;-85
2022/09/18 13:35:12;;;;;;;;;;;13.30;99.90;;;;;;4898373;29;19918;-85
2022/09/18 13:37:37;;;;;;;;;;;13.30;99.90;;;;;;4898057;29;20265;-84
2022/09/18 13:40:26;;;;;;;;;;;13.30;99.90;;;;;;4898217;29;20273;-84
2022/09/18 13:42:52;;;;;;;;;;;13.30;99.90;;;;;;4898856;29;19950;-84
2022/09/18 13:45:20;;;;;;;;;;;13.30;99.90;;;;;;4898402;29;20368;-85
2022/09/18 13:48:11;;;;;;;;;;;13.30;99.90;;;;;;4897813;29;19967;-84
2022/09/18 13:50:46;;;;;;;;;;;13.30;99.90;;;;;;4890466;29;19912;-84
2022/09/18 13:53:27;;;;;;;;;;;13.30;99.90;;;;;;4899448;29;19951;-85
2022/09/18 13:55:53;;;;;;;;;;;13.30;99.90;;;;;;4898974;29;19967;-85
2022/09/18 13:58:33;;;;;;;;;;;13.30;99.90;;;;;;4897839;29;19916;-84
2022/09/18 14:01:03;;;;;;;;;;;13.30;99.90;;;;;;4897857;29;19970;-84
2022/09/18 14:03:38;;;;;;;;;;;13.30;99.90;;;;;;4897673;29;19916;-85
2022/09/18 14:06:23;;;;;;;;;;;13.20;99.90;;;;;;4898587;29;19912;-84
2022/09/18 14:08:48;;;;;;;;;;;13.20;99.90;;;;;;4898833;29;19954;-85
2022/09/18 14:11:20;;;;;;;;;;;13.10;99.90;;;;;;4898181;29;19963;-84
2022/09/18 14:13:50;;;;;;;;;;;13.10;99.90;;;;;;4897800;29;19958;-85
2022/09/18 14:16:18;;;;;;;;;;;13.00;99.90;;;;;;4897358;29;19915;-85
2022/09/18 14:18:47;;;;;;;;;;;13.00;99.90;;;;;;4897581;29;20328;-86
2022/09/18 14:21:15;;;;;;;;;;;12.90;99.90;;;;;;4897531;29;19912;-85
2022/09/18 14:23:47;;;;;;;;;;;12.80;99.90;;;;;;4897759;29;19998;-84
2022/09/18 14:26:27;;;;;;;;;;;12.80;99.90;;;;;;4898283;29;20307;-85
2022/09/18 14:29:01;;;;;;;;;;;12.80;99.90;;;;;;4898525;29;19911;-85
2022/09/18 14:31:28;;;;;;;;;;;12.90;99.90;;;;;;4897317;29;19963;-85
2022/09/18 14:33:58;;;;;;;;;;;12.90;99.90;;;;;;4897240;29;19919;-85
2022/09/18 14:36:24;;;;;;;;;;;13.00;99.90;;;;;;4896855;29;19934;-85
2022/09/18 14:38:49;;;;;;;;;;;13.00;99.90;;;;;;4897165;29;19915;-84
2022/09/18 14:41:21;;;;;;;;;;;13.00;99.90;;;;;;4897131;29;19943;-85
2022/09/18 14:44:00;;;;;;;;;;;13.00;99.90;;;;;;4898271;29;19987;-84
2022/09/18 14:46:26;;;;;;;;;;;13.10;99.90;;;;;;4896740;29;20367;-86
2022/09/18 14:48:52;;;;;;;;;;;13.10;99.90;;;;;;4898440;29;19922;-85
2022/09/18 14:51:20;;;;;;;;;;;13.10;99.90;;;;;;4898300;29;19916;-85
2022/09/18 14:53:48;;;;;;;;;;;13.10;99.90;;;;;;4896894;29;19912;-85
2022/09/18 14:56:22;;;;;;;;;;;13.20;99.90;;;;;;4896641;29;20054;-84
2022/09/18 14:58:49;;;;;;;;;;;13.20;99.90;;;;;;4898218;29;19926;-85
2022/09/18 15:01:35;;;;;;;;;;;13.20;99.90;;;;;;4897183;29;19911;-85
2022/09/18 15:04:02;;;;;;;;;;;13.10;99.90;;;;;;4896400;29;19989;-86
2022/09/18 15:06:44;;;;;;;;;;;13.10;99.90;;;;;;4896390;29;19958;-84
2022/09/18 15:09:14;;;;;;;;;;;13.00;99.90;;;;;;4896894;29;19919;-83
2022/09/18 15:11:41;;;;;;;;;;;12.90;99.90;;;;;;4896847;29;19916;-83
2022/09/18 15:14:19;;;;;;;;;;;12.90;99.90;;;;;;4897398;29;20359;-84
2022/09/18 15:16:52;;;;;;;;;;;12.90;99.90;;;;;;4897672;29;19911;-84
2022/09/18 15:19:17;;;;;;;;;;;12.90;99.90;;;;;;4898449;29;19916;-83
2022/09/18 15:21:46;;;;;;;;;;;13.00;99.90;;;;;;4898384;29;19911;-83
2022/09/18 15:24:15;;;;;;;;;;;13.00;99.90;;;;;;4898311;29;19911;-82
2022/09/18 15:26:49;;;;;;;;;;;13.10;99.90;;;;;;4897333;29;19971;-84
2022/09/18 15:29:26;;;;;;;;;;;13.10;99.90;;;;;;4897494;29;19918;-83
2022/09/18 15:31:52;;;;;;;;;;;13.20;99.90;;;;;;4896886;29;19971;-83
2022/09/18 15:34:22;;;;;;;;;;;13.10;99.90;;;;;;4898221;29;20557;-84
2022/09/18 15:36:55;;;;;;;;;;;13.20;99.90;;;;;;4897774;29;19915;-83
2022/09/18 15:39:31;;;;;;;;;;;13.20;99.90;;;;;;4897469;29;19971;-84
2022/09/18 15:42:17;;;;;;;;;;;13.10;99.90;;;;;;4897872;29;20292;-84
2022/09/18 15:44:45;;;;;;;;;;;13.10;99.90;;;;;;4896739;29;20292;-83
2022/09/18 15:47:31;;;;;;;;;;;13.00;99.90;;;;;;4896166;29;19911;-84
2022/09/18 15:49:58;;;;;;;;;;;13.00;99.90;;;;;;4896208;29;20350;-83
2022/09/18 15:52:41;;;;;;;;;;;13.00;99.90;;;;;;4897438;29;19918;-83
2022/09/18 15:55:14;;;;;;;;;;;13.00;99.90;;;;;;4898016;29;20277;-84
2022/09/18 15:57:50;;;;;;;;;;;13.00;99.90;;;;;;4896521;29;19916;-88
2022/09/18 16:00:19;;;;;;;;;;;12.90;99.90;;;;;;4896505;29;20003;-82
2022/09/18 16:02:52;;;;;;;;;;;12.90;99.90;;;;;;4897149;29;19946;-82
2022/09/18 16:05:17;;;;;;;;;;;12.90;99.90;;;;;;4898240;29;19915;-82
2022/09/18 16:07:51;;;;;;;;;;;12.80;99.90;;;;;;4896076;29;19959;-81
2022/09/18 16:10:39;;;;;;;;;;;12.70;99.90;;;;;;4897864;29;19918;-81
2022/09/18 16:13:25;;;;;;;;;;;12.60;99.90;;;;;;4898303;29;19963;-83
2022/09/18 16:16:12;;;;;;;;;;;12.40;99.90;;;;;;4896435;29;19959;-82
2022/09/18 16:18:47;;;;;;;;;;;12.30;99.90;;;;;;4900121;29;19923;-81
2022/09/18 16:21:12;;;;;;;;;;;12.10;99.90;;;;;;4898486;29;19963;-82
2022/09/18 16:23:46;;;;;;;;;;;12.00;99.90;;;;;;4899520;29;19920;-82
2022/09/18 16:26:14;;;;;;;;;;;11.90;99.90;;;;;;4896969;29;19919;-82
2022/09/18 16:28:41;;;;;;;;;;;11.80;99.90;;;;;;4897235;29;19911;-83
2022/09/18 16:31:07;;;;;;;;;;;11.90;99.90;;;;;;4897318;29;20344;-83
2022/09/18 16:33:33;;;;;;;;;;;11.90;99.90;;;;;;4895966;29;19912;-83
2022/09/18 16:36:00;;;;;;;;;;;11.80;99.90;;;;;;4897212;29;19912;-82
2022/09/18 16:38:26;;;;;;;;;;;11.80;99.90;;;;;;4897018;29;20013;-83